Data for 03/07/2005

Time Sea-Level Adjusted Pressure Absolute Pressure Temperature Relative Humidity Dew Point   
(mb) (inHg) (mb) (inHg) (C) (F) (%) (C) (F)
00:05 1021 30.15 850 25.1 5.6 42.1 30 -10.6 12.9
00:10 1021 30.15 850 25.1 5.5 41.8 31 -10.5 13.2
00:15 1020 30.12 850 25.1 5.2 41.3 32 -10.3 13.4
00:20 1020 30.12 850 25.1 4.6 40.3 33 -10.2 13.7
00:25 1020 30.12 850 25.1 4 39.3 37 -9.4 15.1
00:30 1020 30.12 850 25.1 2.9 37.3 42 -8.7 16.4
00:35 1020 30.12 850 25.1 2.2 35.9 45 -8.6 16.6
00:40 1021 30.15 850 25.1 1.9 35.4 44 -9.1 15.7
00:45 1021 30.15 850 25.1 2.3 36.1 43 -8.9 15.9
00:50 1021 30.15 850 25.1 2 35.5 47 -8.3 17
00:55 1021 30.15 850 25.1 1.9 35.4 44 -9.1 15.6
01:00 1020 30.12 850 25.1 2.2 36 44 -8.8 16.2
01:05 1021 30.15 850 25.1 2.1 35.8 43 -9.2 15.5
01:10 1021 30.15 850 25.1 2.6 36.8 39 -9.9 14.2
01:15 1021 30.15 850 25.1 3 37.4 40 -9.2 15.4
01:20 1021 30.15 850 25.1 2.9 37.2 39 -9.6 14.7
01:25 1021 30.15 850 25.1 2.9 37.3 40 -9.5 14.9
01:30 1021 30.15 850 25.1 3 37.4 39 -9.6 14.8
01:35 1021 30.15 850 25.1 2.9 37.1 40 -9.5 14.9
01:40 1021 30.15 850 25.1 2.9 37.2 40 -9.4 15.1
01:45 1021 30.15 850 25.1 3 37.3 39 -9.7 14.6
01:50 1021 30.15 850 25.1 3 37.5 38 -9.8 14.3
01:55 1021 30.15 850 25.1 3.2 37.7 38 -9.8 14.4
02:00 1021 30.15 850 25.1 3.3 37.9 38 -9.7 14.6
02:05 1021 30.15 850 25.1 3.2 37.8 39 -9.5 14.8
02:10 1021 30.15 850 25.1 3.1 37.5 39 -9.5 14.9
02:15 1021 30.15 850 25.1 3.1 37.6 38 -9.8 14.3
02:20 1021 30.15 850 25.1 3.2 37.8 39 -9.5 15
02:25 1021 30.15 850 25.1 3 37.5 40 -9.4 15.1
02:30 1021 30.15 850 25.1 2.8 37.1 41 -9.1 15.7
02:35 1021 30.15 850 25.1 2.6 36.7 42 -9.1 15.6
02:40 1021 30.15 850 25.1 2.6 36.6 42 -9.2 15.4
02:45 1020 30.12 850 25.1 2.4 36.3 45 -8.4 16.9
02:50 1020 30.12 850 25.1 2 35.5 43 -9.3 15.3
02:55 1020 30.12 850 25.1 2.6 36.7 42 -9 15.8
03:00 1020 30.12 849 25.07 2.8 37.1 42 -8.9 15.9
03:05 1020 30.12 849 25.07 2.5 36.4 44 -8.7 16.4
03:10 1020 30.12 849 25.07 2.4 36.4 42 -9.3 15.2
03:15 1020 30.12 849 25.07 2.7 36.9 41 -9.4 15.1
03:20 1020 30.12 849 25.07 2.9 37.3 40 -9.3 15.2
03:25 1020 30.12 849 25.07 2.8 37 42 -9.1 15.7
03:30 1020 30.12 849 25.07 2.8 37 40 -9.4 15.1
03:35 1020 30.12 849 25.07 2.8 37 41 -9.1 15.6
03:40 1020 30.12 849 25.07 2.6 36.7 41 -9.3 15.3
03:45 1020 30.12 849 25.07 2.7 36.8 41 -9.2 15.5
03:50 1020 30.12 849 25.07 2.4 36.3 43 -9 15.7
03:55 1020 30.12 849 25.07 2.1 35.8 44 -9 15.9
04:00 1020 30.12 849 25.07 1.9 35.5 44 -9 15.8
04:05 1020 30.12 849 25.07 1.8 35.3 45 -8.8 16.2
04:10 1020 30.12 849 25.07 1.5 34.6 46 -8.9 16
04:15 1020 30.12 849 25.07 1.6 34.9 46 -8.9 15.9
04:20 1020 30.12 849 25.07 1.4 34.6 47 -8.8 16.2
04:25 1020 30.12 849 25.07 1.7 35.1 43 -9.6 14.7
04:30 1020 30.12 849 25.07 2.3 36.1 42 -9.5 14.9
04:35 1020 30.12 849 25.07 2.4 36.3 42 -9.3 15.3
04:40 1020 30.12 849 25.07 2.5 36.4 41 -9.5 14.9
04:45 1020 30.12 849 25.07 2.4 36.3 44 -8.7 16.3
04:50 1020 30.12 849 25.07 1.9 35.4 46 -8.7 16.4
04:55 1020 30.12 849 25.07 2.1 35.7 43 -9.2 15.5
05:00 1020 30.12 849 25.07 2.8 37.1 41 -9.1 15.7
05:05 1020 30.12 849 25.07 3.3 37.9 41 -8.7 16.3
05:10 1020 30.12 849 25.07 3.3 38 42 -8.6 16.6
05:15 1020 30.12 849 25.07 3.4 38.2 41 -8.6 16.6
05:20 1020 30.12 849 25.07 3.5 38.4 41 -8.5 16.7
05:25 1020 30.12 849 25.07 3.6 38.5 41 -8.4 16.8
05:30 1020 30.12 849 25.07 3.6 38.5 42 -8.2 17.2
05:35 1020 30.12 849 25.07 3.5 38.3 42 -8.3 17.1
05:40 1020 30.12 849 25.07 3.5 38.3 42 -8.2 17.3
05:45 1020 30.12 849 25.07 3.4 38.2 41 -8.7 16.4
05:50 1020 30.12 849 25.07 3.8 38.9 39 -8.9 15.9
05:55 1020 30.12 849 25.07 4 39.2 38 -8.9 15.9
06:00 1020 30.12 849 25.07 4.1 39.3 38 -8.9 16
06:05 1020 30.12 849 25.07 4 39.3 39 -8.8 16.1
06:10 1020 30.12 849 25.07 3.8 38.8 39 -8.8 16.2
06:15 1020 30.12 849 25.07 3.7 38.6 39 -9 15.8
06:20 1020 30.12 849 25.07 3.7 38.7 39 -9 15.7
06:25 1020 30.12 849 25.07 3.8 38.9 39 -9 15.8
06:30 1020 30.12 849 25.07 3.9 39 38 -9.1 15.6
06:35 1020 30.12 849 25.07 3.9 39 38 -9.2 15.4
06:40 1020 30.12 849 25.07 3.8 38.9 40 -8.5 16.8
06:45 1020 30.12 849 25.07 3.8 38.8 40 -8.7 16.3
06:50 1020 30.12 849 25.07 4 39.2 38 -9 15.9
06:55 1020 30.12 849 25.07 4.3 39.7 38 -8.8 16.2
07:00 1020 30.12 849 25.07 4.3 39.7 37 -9.1 15.6
07:05 1020 30.12 849 25.07 4.5 40.2 37 -9.1 15.7
07:10 1020 30.12 849 25.07 5 41 34 -9.4 15
07:15 1020 30.12 849 25.07 5.4 41.7 33 -9.7 14.6
07:20 1020 30.12 849 25.07 5.6 42 34 -9.2 15.5
07:25 1020 30.12 849 25.07 5.6 42.1 34 -9.1 15.6
07:30 1020 30.12 849 25.07 5.6 42.1 34 -9 15.8
07:35 1020 30.12 849 25.07 5.6 42.2 34 -9.1 15.6
07:40 1020 30.12 849 25.07 5.6 42.1 34 -9.1 15.6
07:45 1020 30.12 849 25.07 5.7 42.3 33 -9.3 15.2
07:50 1020 30.12 849 25.07 5.8 42.4 34 -8.8 16.1
07:55 1020 30.12 849 25.07 5.6 42.1 34 -9 15.8
08:00 1020 30.12 849 25.07 5.6 42.1 35 -8.6 16.5
08:05 1020 30.12 849 25.07 5.5 41.9 35 -8.7 16.4
08:10 1020 30.12 849 25.07 5.1 41.2 36 -8.8 16.2
08:15 1020 30.12 849 25.07 5.1 41.2 35 -9.1 15.7
08:20 1020 30.12 849 25.07 5.2 41.4 35 -9.2 15.5
08:25 1020 30.12 849 25.07 5.3 41.5 34 -9.4 15.1
08:30 1020 30.12 849 25.07 5.3 41.5 35 -8.9 16
08:35 1020 30.12 849 25.07 5.3 41.5 33 -9.6 14.8
08:40 1020 30.12 849 25.07 5.5 41.8 33 -9.7 14.6
08:45 1020 30.12 849 25.07 5.7 42.2 32 -9.8 14.3
08:50 1020 30.12 849 25.07 5.9 42.6 32 -9.6 14.8
08:55 1020 30.12 849 25.07 6.1 42.9 32 -9.6 14.7
09:00 1020 30.12 849 25.07 6.1 42.9 32 -9.5 15
09:05 1020 30.12 849 25.07 6.1 42.9 30 -10.1 13.8
09:10 1020 30.12 849 25.07 6.2 43.2 31 -9.7 14.5
09:15 1020 30.12 849 25.07 6.2 43.2 31 -9.6 14.7
09:20 1020 30.12 849 25.07 6.3 43.4 32 -9.2 15.4
09:25 1020 30.12 849 25.07 6.4 43.5 33 -8.7 16.4
09:30 1020 30.12 849 25.07 6.4 43.4 35 -8.2 17.3
09:35 1020 30.12 850 25.1 6.5 43.8 38 -6.7 19.9
09:40 1020 30.12 850 25.1 6.3 43.4 41 -5.9 21.3
09:45 1021 30.15 850 25.1 5.9 42.6 47 -4.5 23.9
09:50 1020 30.12 850 25.1 6 42.9 47 -4.3 24.3
09:55 1020 30.12 850 25.1 6.3 43.3 47 -4.1 24.6
10:00 1020 30.12 850 25.1 6.8 44.2 46 -4.1 24.6
10:05 1021 30.15 850 25.1 7.1 44.9 45 -4.1 24.6
10:10 1021 30.15 850 25.1 7.2 45 51 -2.2 28.1
10:15 1021 30.15 850 25.1 6.8 44.3 52 -2.3 27.9
10:20 1021 30.15 850 25.1 6.5 43.7 52 -2.5 27.5
10:25 1021 30.15 850 25.1 6.3 43.3 58 -1.3 29.6
10:30 1021 30.15 850 25.1 6 42.7 56 -2.2 28
10:35 1021 30.15 850 25.1 5.8 42.5 62 -0.8 30.6
10:40 1021 30.15 850 25.1 5.3 41.6 68 -0.1 31.8
10:45 1021 30.15 850 25.1 4.5 40.1 78 1 33.8
10:50 1021 30.15 850 25.1 3.9 39 82 1.2 34.1
10:55 1021 30.15 850 25.1 3.6 38.5 84 1.2 34.2
11:00 1021 30.15 850 25.1 3.5 38.3 85 1.3 34.3
11:05 1021 30.15 850 25.1 3.4 38.2 86 1.3 34.4
11:10 1021 30.15 850 25.1 3.3 37.9 88 1.5 34.8
11:15 1021 30.15 850 25.1 2.9 37.3 91 1.7 35
11:20 1021 30.15 850 25.1 3.1 37.6 91 1.7 35.1
11:25 1021 30.15 850 25.1 3.1 37.6 89 1.4 34.6
11:30 1021 30.15 850 25.1 2.6 36.7 91 1.3 34.4
11:35 1021 30.15 850 25.1 2.3 36.1 92 1.2 34.1
11:40 1020 30.12 850 25.1 2.2 35.9 93 1.1 34
11:45 1020 30.12 850 25.1 2.2 36 93 1.2 34.1
11:50 1020 30.12 850 25.1 2.7 36.8 91 1.4 34.6
11:55 1020 30.12 849 25.07 3.3 37.9 89 1.6 34.9
12:00 1020 30.12 849 25.07 3.6 38.5 87 1.6 34.9
12:05 1020 30.12 849 25.07 3.6 38.5 88 1.8 35.2
12:10 1020 30.12 849 25.07 3.8 38.8 88 2.1 35.7
12:15 1020 30.12 849 25.07 4.2 39.5 89 2.5 36.4
12:20 1020 30.12 849 25.07 4.6 40.3 87 2.6 36.7
12:25 1020 30.12 849 25.07 4.9 40.7 88 3 37.4
12:30 1020 30.12 849 25.07 4.6 40.3 90 3 37.5
12:35 1020 30.12 849 25.07 4.6 40.2 87 2.6 36.8
12:40 1020 30.12 849 25.07 4.4 40 87 2.4 36.4
12:45 1020 30.12 849 25.07 4.3 39.8 88 2.5 36.5
12:50 1020 30.12 849 25.07 3.9 39.1 90 2.4 36.3
12:55 1020 30.12 849 25.07 3.8 38.8 91 2.5 36.4
13:00 1020 30.12 849 25.07 3.6 38.5 91 2.3 36.1
13:05 1020 30.12 849 25.07 3.6 38.5 90 2.1 35.9
13:10 1019 30.09 849 25.07 4 39.1 88 2.2 36
13:15 1019 30.09 849 25.07 4.3 39.7 88 2.5 36.5
13:20 1019 30.09 848 25.04 4.4 40 87 2.5 36.4
13:25 1019 30.09 848 25.04 4.6 40.2 87 2.5 36.6
13:30 1019 30.09 848 25.04 4.9 40.9 86 2.8 37.1
13:35 1019 30.09 848 25.04 5.2 41.4 83 2.5 36.5
13:40 1019 30.09 848 25.04 5.1 41.1 84 2.5 36.5
13:45 1019 30.09 848 25.04 4.9 40.8 84 2.4 36.3
13:50 1019 30.09 848 25.04 4.9 40.8 83 2.2 35.9
13:55 1019 30.09 848 25.04 5.1 41.2 81 2.2 35.9
14:00 1019 30.09 848 25.04 5.4 41.7 79 2.1 35.8
14:05 1019 30.09 848 25.04 5.5 41.8 79 2.1 35.7
14:10 1019 30.09 848 25.04 5.5 41.9 78 2 35.7
14:15 1019 30.09 848 25.04 5.6 42.1 77 1.8 35.3
14:20 1019 30.09 848 25.04 6.2 43.1 74 1.9 35.5
14:25 1018 30.06 848 25.04 6.2 43.2 75 2.2 36
14:30 1018 30.06 848 25.04 6.7 44.1 71 1.9 35.4
14:35 1018 30.06 848 25.04 6.9 44.4 71 1.9 35.5
14:40 1018 30.06 848 25.04 6.8 44.3 72 2.1 35.8
14:45 1018 30.06 847 25.01 7.1 44.8 70 2 35.7
14:50 1018 30.06 847 25.01 7.4 45.2 70 2.3 36.1
14:55 1018 30.06 847 25.01 7.9 46.2 66 1.9 35.5
15:00 1018 30.06 847 25.01 8.1 46.6 69 2.7 36.8
15:05 1018 30.06 847 25.01 8.5 47.3 66 2.6 36.8
15:10 1018 30.06 847 25.01 8.8 47.8 63 2.1 35.9
15:15 1018 30.06 847 25.01 9.5 49.1 60 2 35.7
15:20 1018 30.06 847 25.01 10.3 50.6 56 1.9 35.3
15:25 1018 30.06 847 25.01 10.7 51.3 59 3 37.5
15:30 1018 30.06 847 25.01 11.2 52.2 58 3.3 37.9
15:35 1018 30.06 847 25.01 10.6 51 61 3.4 38.2
15:40 1017 30.03 847 25.01 10.5 50.9 60 3.1 37.7
15:45 1017 30.03 847 25.01 10.7 51.2 60 3.4 38
15:50 1017 30.03 847 25.01 10.8 51.4 59 3.1 37.6
15:55 1017 30.03 846 24.98 10.6 51.1 60 3.1 37.6
16:00 1017 30.03 846 24.98 10.4 50.8 60 3.1 37.5
16:05 1017 30.03 846 24.98 10.5 50.8 61 3.3 37.9
16:10 1017 30.03 846 24.98 10.4 50.8 60 2.9 37.3
16:15 1017 30.03 846 24.98 10.3 50.6 58 2.5 36.5
16:20 1017 30.03 846 24.98 10.3 50.6 57 2.2 36
16:25 1017 30.03 846 24.98 10.3 50.5 58 2.4 36.2
16:30 1017 30.03 846 24.98 10.2 50.4 58 2.4 36.4
16:35 1016 30 846 24.98 10.1 50.2 57 2.1 35.8
16:40 1016 30 846 24.98 9.8 49.7 58 1.9 35.4
16:45 1016 30 845 24.95 9.8 49.7 59 2.1 35.8
16:50 1016 30 845 24.95 9.8 49.7 57 1.8 35.3
16:55 1016 30 845 24.95 9.9 49.7 54 1.1 33.9
17:00 1016 30 845 24.95 10.1 50.1 52 0.8 33.4
17:05 1016 30 845 24.95 10.4 50.7 50 0.6 33
17:10 1016 30 845 24.95 11.3 52.3 48 0.8 33.4
17:15 1016 30 845 24.95 12.1 53.8 48 1.5 34.7
17:20 1016 30 845 24.95 12.2 53.9 48 1.6 34.8
17:25 1016 30 845 24.95 12.1 53.8 48 1.4 34.5
17:30 1016 30 845 24.95 12.1 53.7 48 1.5 34.8
17:35 1015 29.97 845 24.95 11.8 53.2 50 1.7 35.1
17:40 1015 29.97 844 24.92 11.4 52.5 50 1.4 34.5
17:45 1015 29.97 845 24.95 11.4 52.6 50 1.3 34.3
17:50 1015 29.97 845 24.95 11.5 52.8 50 1.5 34.8
17:55 1015 29.97 845 24.95 11.3 52.3 51 1.5 34.7
18:00 1015 29.97 845 24.95 11.1 52 51 1.5 34.7
18:05 1015 29.97 845 24.95 11 51.8 52 1.6 34.9
18:10 1015 29.97 845 24.95 10.7 51.2 54 1.7 35
18:15 1015 29.97 845 24.95 10.3 50.6 55 1.6 35
18:20 1015 29.97 845 24.95 10.1 50.2 55 1.4 34.6
18:25 1015 29.97 844 24.92 9.8 49.7 56 1.4 34.5
18:30 1015 29.97 844 24.92 9.6 49.2 57 1.5 34.8
18:35 1015 29.97 844 24.92 9.1 48.4 59 1.6 34.9
18:40 1015 29.97 845 24.95 8.9 48 55 0.5 32.8
18:45 1015 29.97 845 24.95 9 48.2 52 -0.2 31.6
18:50 1015 29.97 845 24.95 9.1 48.3 51 -0.4 31.3
18:55 1015 29.97 844 24.92 8.9 48.1 52 -0.3 31.5
19:00 1015 29.97 844 24.92 8.6 47.5 53 -0.5 31.2
19:05 1015 29.97 845 24.95 8.3 47 53 -0.7 30.8
19:10 1016 30 845 24.95 8.1 46.6 54 -0.7 30.7
19:15 1016 30 845 24.95 8 46.4 51 -1.5 29.3
19:20 1016 30 845 24.95 8.3 46.9 50 -1.6 29.1
19:25 1016 30 845 24.95 8.5 47.4 49 -1.6 29.2
19:30 1016 30 845 24.95 8.6 47.6 48 -1.8 28.8
19:35 1016 30 845 24.95 8.7 47.7 47 -2.1 28.3
19:40 1016 30 845 24.95 8.9 48.1 44 -2.6 27.3
19:45 1016 30 845 24.95 9.4 48.9 42 -2.7 27.1
19:50 1016 30 845 24.95 9.5 49 44 -2.1 28.2
19:55 1016 30 845 24.95 9 48.2 46 -1.8 28.7
20:00 1016 30 845 24.95 8.7 47.7 48 -1.8 28.8
20:05 1016 30 845 24.95 8.4 47.2 49 -1.7 28.9
20:10 1016 30 845 24.95 8.2 46.7 49 -1.8 28.8
20:15 1016 30 845 24.95 8 46.5 49 -2.1 28.3
20:20 1016 30 845 24.95 8.1 46.5 45 -3 26.6
20:25 1016 30 845 24.95 8.5 47.2 42 -3.7 25.4
20:30 1016 30 845 24.95 8.9 48 41 -3.6 25.5
20:35 1016 30 845 24.95 8.9 48 41 -3.6 25.5
20:40 1016 30 845 24.95 8.8 47.8 43 -3 26.6
20:45 1016 30 845 24.95 8.5 47.4 44 -3.1 26.4
20:50 1016 30 845 24.95 8.4 47 44 -3.1 26.4
20:55 1016 30 845 24.95 8.2 46.7 45 -3.2 26.3
21:00 1016 30 845 24.95 8.2 46.8 42 -3.8 25.2
21:05 1016 30 845 24.95 8.4 47.2 42 -3.7 25.4
21:10 1016 30 845 24.95 8.3 47 43 -3.5 25.8
21:15 1016 30 845 24.95 8.2 46.8 43 -3.4 25.8
21:20 1016 30 845 24.95 8.2 46.7 42 -4 24.7
21:25 1016 30 845 24.95 8.2 46.8 42 -3.9 25
21:30 1016 30 845 24.95 8.1 46.6 43 -3.6 25.6
21:35 1016 30 845 24.95 7.9 46.2 42 -4.3 24.3
21:40 1016 30 845 24.95 8 46.3 42 -4.2 24.4
21:45 1017 30.03 846 24.98 7.9 46.2 42 -4.3 24.2
21:50 1017 30.03 846 24.98 7.8 46.1 43 -3.9 24.9
21:55 1017 30.03 846 24.98 7.1 44.8 48 -3.2 26.2
22:00 1017 30.03 846 24.98 6.9 44.5 44 -4.6 23.8
22:05 1017 30.03 846 24.98 7.5 45.5 44 -3.9 25
22:10 1017 30.03 847 25.01 7.6 45.7 44 -4 24.9
22:15 1018 30.06 847 25.01 7.7 45.9 43 -4 24.9
22:20 1018 30.06 847 25.01 7.8 46 42 -4.3 24.2
22:25 1018 30.06 847 25.01 7.8 46 41 -4.6 23.8
22:30 1018 30.06 847 25.01 8 46.3 41 -4.5 23.9
22:35 1018 30.06 847 25.01 8.1 46.6 40 -4.7 23.5
22:40 1018 30.06 847 25.01 8.3 47 39 -5 23.1
22:45 1018 30.06 847 25.01 8.3 47 39 -4.7 23.6
22:50 1018 30.06 847 25.01 8.2 46.8 40 -4.5 24
22:55 1018 30.06 847 25.01 8.1 46.6 41 -4.3 24.3
23:00 1018 30.06 847 25.01 7.8 46 43 -4.1 24.6
23:05 1018 30.06 847 25.01 7.7 45.8 44 -3.9 24.9
23:10 1018 30.06 847 25.01 7.6 45.6 43 -4.1 24.6
23:15 1018 30.06 847 25.01 7.6 45.7 44 -4 24.8
23:20 1018 30.06 847 25.01 7.1 44.8 46 -3.8 25.2
23:25 1018 30.06 847 25.01 6.7 44.1 45 -4.3 24.2
23:30 1018 30.06 847 25.01 7.1 44.8 42 -5 22.9
23:35 1018 30.06 847 25.01 7.6 45.7 40 -5.2 22.6
23:40 1018 30.06 847 25.01 7.8 46.1 40 -4.8 23.4
23:45 1018 30.06 847 25.01 7.8 46.1 40 -5.1 22.9
23:50 1018 30.06 847 25.01 7.8 46 40 -4.9 23.1
23:55 1018 30.06 848 25.04 7.7 45.9 41 -4.8 23.3
24:00 1019 30.09 848 25.04 7.7 45.8 41 -4.9 23.2